createdAt,value
2023-01-04T00:02:03.198Z,101205.88
2023-01-04T00:04:32.941Z,101197.28
2023-01-04T00:07:01.325Z,101196.44
2023-01-04T00:09:29.660Z,101196.66
2023-01-04T00:11:57.989Z,101203.94
2023-01-04T00:14:26.349Z,101211.06
2023-01-04T00:16:54.768Z,101216.53
2023-01-04T00:19:23.069Z,101205.34
2023-01-04T00:21:53.261Z,101202.91
2023-01-04T00:24:21.828Z,101199.63
2023-01-04T00:26:50.142Z,101205.31
2023-01-04T00:29:18.541Z,101209.75
2023-01-04T00:31:46.953Z,101206.28
2023-01-04T00:34:17.609Z,101200.19
2023-01-04T00:36:46.798Z,101196.94
2023-01-04T00:39:18.169Z,101197.94
2023-01-04T00:42:04.264Z,101188.16
2023-01-04T00:44:34.482Z,101185.72
2023-01-04T00:47:04.952Z,101181.63
2023-01-04T00:49:33.906Z,101182.00
2023-01-04T00:52:02.489Z,101171.84
2023-01-04T00:54:32.249Z,101178.13
2023-01-04T00:57:01.352Z,101171.84
2023-01-04T00:59:30.156Z,101179.78
2023-01-04T01:01:58.664Z,101177.94
2023-01-04T01:04:27.207Z,101170.63
2023-01-04T01:06:55.623Z,101172.28
2023-01-04T01:09:24.374Z,101192.41
2023-01-04T01:11:55.458Z,101183.66
2023-01-04T01:14:26.420Z,101188.94
2023-01-04T01:16:57.855Z,101186.47
2023-01-04T01:19:29.470Z,101167.38
2023-01-04T01:21:58.999Z,101154.34
2023-01-04T01:24:28.512Z,101158.81
2023-01-04T01:27:57.327Z,101158.56
2023-01-04T01:30:26.970Z,101152.66
2023-01-04T01:32:55.297Z,101163.22
2023-01-04T01:35:23.607Z,101165.84
2023-01-04T01:37:51.942Z,101159.56
2023-01-04T01:40:20.478Z,101169.13
2023-01-04T01:42:48.845Z,101155.28
2023-01-04T01:45:33.223Z,101163.41
2023-01-04T01:48:08.490Z,101141.66
2023-01-04T01:50:41.943Z,101146.31
2023-01-04T01:53:11.826Z,101148.13
2023-01-04T01:55:41.929Z,101148.13
2023-01-04T01:58:13.745Z,101133.28
2023-01-04T02:00:43.500Z,101126.97
2023-01-04T02:03:18.388Z,101132.25
2023-01-04T02:05:51.619Z,101118.44
2023-01-04T02:08:22.450Z,101121.69
2023-01-04T02:10:51.257Z,101120.72
2023-01-04T02:13:25.069Z,101116.25
2023-01-04T02:16:09.085Z,101110.97
2023-01-04T02:18:47.146Z,101098.56
2023-01-04T02:21:24.059Z,101086.16
2023-01-04T02:24:27.657Z,101081.09
2023-01-04T02:27:44.865Z,101080.06
2023-01-04T02:31:00.281Z,101085.34
2023-01-04T02:33:44.570Z,101083.53
2023-01-04T02:36:20.155Z,101080.88
2023-01-04T02:39:03.663Z,101078.44
2023-01-04T02:41:36.097Z,101069.72
2023-01-04T02:44:30.619Z,101071.34
2023-01-04T02:47:03.821Z,101060.75
2023-01-04T02:49:50.968Z,101062.38
2023-01-04T02:52:20.520Z,101065.03
2023-01-04T02:54:52.704Z,101062.38
2023-01-04T02:57:36.615Z,101072.78
2023-01-04T03:00:29.495Z,101074.41
2023-01-04T03:03:33.427Z,101081.13
2023-01-04T03:06:16.826Z,101073.38
2023-01-04T03:08:56.635Z,101062.81
2023-01-04T03:11:48.208Z,101054.72
2023-01-04T03:14:31.479Z,101060.19
2023-01-04T03:17:03.421Z,101056.72
2023-01-04T03:19:54.988Z,101052.63
2023-01-04T03:22:50.916Z,101045.94
2023-01-04T03:25:44.183Z,101036.56
2023-01-04T03:28:33.998Z,101034.94
2023-01-04T03:31:28.802Z,101037.56
2023-01-04T03:34:26.283Z,101033.91
2023-01-04T03:37:06.754Z,101032.28
2023-01-04T03:40:11.134Z,101032.91
2023-01-04T03:43:05.685Z,101023.34
2023-01-04T03:45:59.410Z,101031.28
2023-01-04T03:48:32.692Z,101019.50
2023-01-04T03:51:14.532Z,101028.25
2023-01-04T03:53:55.134Z,101028.03
2023-01-04T03:56:26.492Z,101022.59
2023-01-04T03:58:55.658Z,101002.44
2023-01-04T04:01:27.198Z,101012.41
2023-01-04T04:04:14.043Z,101016.44
2023-01-04T04:07:00.265Z,101002.59
2023-01-04T04:09:28.604Z,100995.88
2023-01-04T04:11:59.114Z,100990.41
2023-01-04T04:14:27.751Z,100989.22
2023-01-04T04:16:56.168Z,100992.47
2023-01-04T04:19:24.587Z,100980.69
2023-01-04T04:21:52.939Z,100989.44
2023-01-04T04:24:24.349Z,100991.28
2023-01-04T04:26:54.482Z,100998.19
2023-01-04T04:29:24.761Z,100993.91
2023-01-04T04:31:53.333Z,100992.88
2023-01-04T04:34:21.715Z,100996.34
2023-01-04T04:36:50.045Z,100991.88
2023-01-04T04:39:18.717Z,100996.97
2023-01-04T04:41:46.057Z,100984.97
2023-01-04T04:44:16.302Z,100988.63
2023-01-04T04:46:47.680Z,100979.88
2023-01-04T04:49:17.034Z,100983.34
2023-01-04T04:51:46.917Z,100989.22
2023-01-04T04:54:19.337Z,100979.47
2023-01-04T04:56:48.184Z,100976.84
2023-01-04T04:59:16.616Z,100977.03
2023-01-04T05:01:46.704Z,100966.84
2023-01-04T05:04:17.063Z,100966.25
2023-01-04T05:06:45.836Z,100974.19
2023-01-04T05:09:15.181Z,100966.63
2023-01-04T05:12:01.732Z,100966.63
2023-01-04T05:14:30.309Z,100973.94
2023-01-04T05:17:00.096Z,100969.03
2023-01-04T05:19:28.476Z,100966.38
2023-01-04T05:21:56.783Z,100976.94
2023-01-04T05:24:25.068Z,100965.56
2023-01-04T05:26:53.405Z,100968.59
2023-01-04T05:29:39.376Z,100952.16
2023-01-04T05:32:09.225Z,100958.63
2023-01-04T05:34:37.765Z,100952.75
2023-01-04T05:37:06.138Z,100941.75
2023-01-04T05:39:34.457Z,100948.81
2023-01-04T05:42:20.409Z,100951.47
2023-01-04T05:44:48.730Z,100943.94
2023-01-04T05:47:18.420Z,100947.59
2023-01-04T05:49:46.694Z,100928.50
2023-01-04T05:52:15.040Z,100937.41
2023-01-04T05:54:43.318Z,100934.59
2023-01-04T05:57:11.988Z,100959.78
2023-01-04T05:59:42.159Z,100923.00
2023-01-04T06:02:18.732Z,100936.41
2023-01-04T06:04:51.512Z,100932.13
2023-01-04T06:07:23.684Z,100920.75
2023-01-04T06:09:52.014Z,100932.13
2023-01-04T06:12:20.442Z,100927.84
2023-01-04T06:14:48.733Z,100900.84
2023-01-04T06:17:18.563Z,100925.59
2023-01-04T06:19:46.966Z,100911.97
2023-01-04T06:22:15.741Z,100908.13
2023-01-04T06:24:44.081Z,100912.59
2023-01-04T06:27:12.903Z,100892.50
2023-01-04T06:29:41.207Z,100895.13
2023-01-04T06:32:09.626Z,100902.25
2023-01-04T06:34:39.322Z,100896.97
2023-01-04T06:37:07.727Z,100909.16
2023-01-04T06:39:37.113Z,100906.31
2023-01-04T06:42:07.141Z,100912.41
2023-01-04T06:44:35.813Z,100902.69
2023-01-04T06:47:04.151Z,100911.59
2023-01-04T06:49:32.503Z,100914.44
2023-01-04T06:52:02.178Z,100919.06
2023-01-04T06:54:32.697Z,100907.91
2023-01-04T06:57:00.989Z,100915.84
2023-01-04T06:59:29.326Z,100907.72
2023-01-04T07:01:57.706Z,100912.81
2023-01-04T07:04:26.428Z,100895.13
2023-01-04T07:06:54.775Z,100895.75
2023-01-04T07:09:24.491Z,100879.91
2023-01-04T07:11:52.863Z,100886.00
2023-01-04T07:14:21.160Z,100881.56
2023-01-04T07:16:49.538Z,100871.59
2023-01-04T07:19:18.110Z,100878.72
2023-01-04T07:21:46.433Z,100867.34
2023-01-04T07:24:14.909Z,100856.56
2023-01-04T07:26:44.621Z,100872.25
2023-01-04T07:29:15.761Z,100875.06
2023-01-04T07:31:46.826Z,100883.34
2023-01-04T07:34:16.211Z,100880.13
2023-01-04T07:36:44.594Z,100890.03
2023-01-04T07:39:12.975Z,100886.59
2023-01-04T07:41:41.936Z,100876.03
2023-01-04T07:44:13.425Z,100876.84
2023-01-04T07:46:43.059Z,100881.13
2023-01-04T07:49:17.520Z,100855.53
2023-01-04T07:51:47.622Z,100848.44
2023-01-04T07:54:16.718Z,100855.53
2023-01-04T07:56:45.394Z,100832.38
2023-01-04T07:59:17.203Z,100847.25
2023-01-04T08:01:46.076Z,100828.94
2023-01-04T08:04:16.044Z,100829.56
2023-01-04T08:06:46.780Z,100828.75
2023-01-04T08:09:15.219Z,100830.00
2023-01-04T08:11:43.538Z,100834.03
2023-01-04T08:14:12.199Z,100825.31
2023-01-04T08:16:43.754Z,100823.47
2023-01-04T08:19:15.920Z,100823.47
2023-01-04T08:21:44.964Z,100837.31
2023-01-04T08:24:15.352Z,100823.72
2023-01-04T08:26:43.950Z,100839.56
2023-01-04T08:29:13.271Z,100843.03
2023-01-04T08:31:43.034Z,100848.31
2023-01-04T08:34:12.219Z,100852.78
2023-01-04T08:36:49.235Z,100857.84
2023-01-04T08:39:18.425Z,100859.03
2023-01-04T08:42:00.838Z,100850.13
2023-01-04T08:44:31.464Z,100848.47
2023-01-04T08:47:01.233Z,100858.06
2023-01-04T08:49:29.624Z,100845.66
2023-01-04T08:51:58.128Z,100844.84
2023-01-04T08:54:26.517Z,100850.94
2023-01-04T08:56:54.806Z,100849.13
2023-01-04T08:59:23.146Z,100859.28
2023-01-04T09:01:51.528Z,100841.63
2023-01-04T09:04:21.335Z,100841.22
2023-01-04T09:06:49.709Z,100833.91
2023-01-04T09:09:18.080Z,100839.63
2023-01-04T09:11:46.398Z,100838.63
2023-01-04T09:14:14.915Z,100827.84
2023-01-04T09:16:43.372Z,100829.69
2023-01-04T09:19:15.214Z,100830.72
2023-01-04T09:21:49.510Z,100833.13
2023-01-04T09:24:18.039Z,100827.66
2023-01-04T09:26:47.529Z,100811.19
2023-01-04T09:29:16.021Z,100820.34
2023-01-04T09:31:44.485Z,100822.59
2023-01-04T09:34:16.577Z,100813.25
2023-01-04T09:36:46.254Z,100822.81
2023-01-04T09:39:23.480Z,100811.25
2023-01-04T09:41:58.932Z,100806.78
2023-01-04T09:47:38.825Z,100801.69
2023-01-04T09:50:15.203Z,100800.06
2023-01-04T09:52:56.338Z,100802.31
2023-01-04T09:55:38.384Z,100795.19
2023-01-04T09:58:28.721Z,100792.34
2023-01-04T10:01:04.805Z,100793.19
2023-01-04T10:03:38.728Z,100802.50
2023-01-04T10:06:11.551Z,100790.97
2023-01-04T10:08:42.269Z,100786.28
2023-01-04T10:11:30.266Z,100793.16
2023-01-04T10:14:27.040Z,100779.16
2023-01-04T10:17:15.012Z,100795.63
2023-01-04T10:21:18.787Z,100800.53
2023-01-04T10:23:07.221Z,100797.66
2023-01-04T10:25:45.415Z,100787.72
2023-01-04T10:28:35.290Z,100793.59
2023-01-04T10:31:38.692Z,100779.59
2023-01-04T10:34:12.689Z,100765.56
2023-01-04T10:36:45.540Z,100775.13
2023-01-04T10:39:17.478Z,100771.25
2023-01-04T10:41:53.703Z,100764.94
2023-01-04T10:44:35.860Z,100767.41
2023-01-04T10:47:11.409Z,100756.41
2023-01-04T10:49:45.909Z,100758.88
2023-01-04T10:52:19.833Z,100751.75
2023-01-04T10:54:53.400Z,100741.19
2023-01-04T10:57:29.789Z,100737.13
2023-01-04T11:00:05.576Z,100743.03
2023-01-04T11:02:44.484Z,100731.22
2023-01-04T11:05:20.888Z,100742.22
2023-01-04T11:07:56.794Z,100740.22
2023-01-04T11:10:29.462Z,100732.06
2023-01-04T11:12:57.855Z,100725.97
2023-01-04T11:15:27.699Z,100721.50
2023-01-04T11:17:56.219Z,100726.59
2023-01-04T11:20:27.445Z,100729.25
2023-01-04T11:23:03.420Z,100724.56
2023-01-04T11:25:39.877Z,100713.38
2023-01-04T11:28:17.413Z,100723.34
2023-01-04T11:30:56.684Z,100736.56
2023-01-04T11:33:26.890Z,100729.44
2023-01-04T11:35:59.348Z,100729.84
2023-01-04T11:38:30.114Z,100716.84
2023-01-04T11:41:02.555Z,100717.25
2023-01-04T11:43:32.442Z,100697.09
2023-01-04T11:46:07.207Z,100710.94
2023-01-04T11:48:42.425Z,100686.09
2023-01-04T11:52:37.116Z,100682.03
2023-01-04T11:55:25.057Z,100679.19
2023-01-04T11:58:08.139Z,100666.56
2023-01-04T12:00:36.609Z,100662.94
2023-01-04T12:03:18.918Z,100678.38
2023-01-04T12:05:47.256Z,100671.25
2023-01-04T12:08:32.827Z,100668.63
2023-01-04T12:11:04.686Z,100661.28
2023-01-04T12:13:34.690Z,100662.09
2023-01-04T12:16:13.541Z,100672.47
2023-01-04T12:18:45.207Z,100656.59
2023-01-04T12:21:20.567Z,100640.50
2023-01-04T12:23:49.829Z,100628.31
2023-01-04T12:26:19.222Z,100618.94
2023-01-04T12:28:49.446Z,100612.19
2023-01-04T12:31:33.942Z,100612.81
2023-01-04T12:34:42.707Z,100598.56
2023-01-04T12:37:15.656Z,100606.09
2023-01-04T12:39:49.649Z,100602.00
2023-01-04T12:42:26.651Z,100591.59
2023-01-04T12:45:23.419Z,100587.09
2023-01-04T12:48:13.305Z,100604.41
2023-01-04T12:51:33.658Z,100591.41
2023-01-04T12:54:04.770Z,100582.81
2023-01-04T12:57:11.013Z,100590.75
2023-01-04T12:59:44.003Z,100590.34
2023-01-04T13:02:23.553Z,100590.94
2023-01-04T13:05:17.029Z,100587.88
2023-01-04T13:07:47.002Z,100600.91
2023-01-04T13:10:30.290Z,100596.19
2023-01-04T13:13:30.126Z,100588.47
2023-01-04T13:16:17.945Z,100601.28
2023-01-04T13:18:51.035Z,100597.38
2023-01-04T13:21:30.512Z,100599.63
2023-01-04T13:24:03.044Z,100584.34
2023-01-04T13:26:38.177Z,100576.81
2023-01-04T13:29:15.627Z,100592.47
2023-01-04T13:31:53.575Z,100589.81
2023-01-04T13:34:26.544Z,100576.78
2023-01-04T13:37:14.685Z,100566.19
2023-01-04T13:39:47.761Z,100565.94
2023-01-04T13:42:24.969Z,100551.69
2023-01-04T13:45:20.190Z,100545.81
2023-01-04T13:47:51.880Z,100538.88
2023-01-04T13:50:40.220Z,100551.53
2023-01-04T13:53:19.688Z,100541.50
2023-01-04T13:55:53.058Z,100554.56
2023-01-04T13:58:23.577Z,100549.84
2023-01-04T14:00:55.627Z,100540.28
2023-01-04T14:03:32.220Z,100546.38
2023-01-04T14:06:16.888Z,100545.56
2023-01-04T14:08:53.487Z,100543.75
2023-01-04T14:11:41.626Z,100548.84
2023-01-04T14:14:31.960Z,100547.19
2023-01-04T14:17:32.335Z,100542.13
2023-01-04T14:20:02.119Z,100535.59
2023-01-04T14:22:52.059Z,100531.31
2023-01-04T14:25:56.455Z,100525.81
2023-01-04T14:28:48.899Z,100523.97
2023-01-04T14:31:34.433Z,100527.44
2023-01-04T14:34:15.158Z,100518.69
2023-01-04T14:36:45.470Z,100516.66
2023-01-04T14:39:34.290Z,100528.25
2023-01-04T14:42:06.693Z,100525.41
2023-01-04T14:44:42.719Z,100534.16
2023-01-04T14:47:13.877Z,100523.31
2023-01-04T14:49:42.324Z,100528.19
2023-01-04T14:52:13.665Z,100529.00
2023-01-04T14:54:42.023Z,100509.91
2023-01-04T14:57:11.388Z,100517.03
2023-01-04T14:59:42.567Z,100518.84
2023-01-04T15:02:11.745Z,100507.81
2023-01-04T15:04:40.388Z,100511.50
2023-01-04T15:07:32.508Z,100505.97
2023-01-04T15:10:00.926Z,100498.03
2023-01-04T15:12:29.365Z,100490.09
2023-01-04T15:14:59.111Z,100485.41
2023-01-04T15:17:27.581Z,100486.44
2023-01-04T15:19:56.004Z,100483.78
2023-01-04T15:22:24.416Z,100483.72
2023-01-04T15:24:52.771Z,100490.03
2023-01-04T15:27:25.634Z,100477.84
2023-01-04T15:29:58.780Z,100465.84
2023-01-04T15:32:27.241Z,100469.09
2023-01-04T15:34:55.652Z,100476.44
2023-01-04T15:37:24.306Z,100474.81
2023-01-04T15:39:58.234Z,100472.16
2023-01-04T15:42:47.613Z,100480.50
2023-01-04T15:45:17.822Z,100477.44
2023-01-04T15:47:46.137Z,100486.19
2023-01-04T15:50:14.587Z,100489.66
2023-01-04T15:52:42.967Z,100493.09
2023-01-04T15:55:11.853Z,100492.31
2023-01-04T15:57:43.930Z,100483.31
2023-01-04T16:00:16.771Z,100474.81
2023-01-04T16:02:45.340Z,100470.88
2023-01-04T16:05:13.801Z,100470.69
2023-01-04T16:07:42.272Z,100475.97
2023-01-04T16:10:11.126Z,100471.25
2023-01-04T16:12:49.859Z,100483.69
2023-01-04T16:15:24.488Z,100490.84
2023-01-04T16:17:53.023Z,100480.25
2023-01-04T16:20:21.782Z,100483.94
2023-01-04T16:22:50.281Z,100474.38
2023-01-04T16:25:18.876Z,100469.88
2023-01-04T16:27:47.316Z,100467.00
2023-01-04T16:30:16.162Z,100466.19
2023-01-04T16:32:46.096Z,100466.81
2023-01-04T16:35:14.528Z,100460.25
2023-01-04T16:37:43.250Z,100461.88
2023-01-04T16:40:13.476Z,100462.88
2023-01-04T16:42:42.038Z,100460.25
2023-01-04T16:45:11.705Z,100457.59
2023-01-04T16:47:43.144Z,100459.06
2023-01-04T16:50:14.228Z,100461.72
2023-01-04T16:52:42.672Z,100454.00
2023-01-04T16:55:11.946Z,100464.97
2023-01-04T16:57:40.367Z,100455.19
2023-01-04T17:00:10.895Z,100454.38
2023-01-04T17:02:39.479Z,100447.44
2023-01-04T17:05:08.990Z,100442.13
2023-01-04T17:07:38.798Z,100456.22
2023-01-04T17:10:08.644Z,100450.69
2023-01-04T17:12:47.111Z,100441.56
2023-01-04T17:15:42.543Z,100449.06
2023-01-04T17:18:05.619Z,100451.72
2023-01-04T17:20:34.057Z,100457.03
2023-01-04T17:23:03.892Z,100450.06
2023-01-04T17:25:32.826Z,100438.69
2023-01-04T17:28:01.281Z,100450.06
2023-01-04T17:30:29.749Z,100440.75
2023-01-04T17:32:58.231Z,100436.03
2023-01-04T17:35:26.713Z,100449.13
2023-01-04T17:37:55.221Z,100444.22
2023-01-04T17:40:25.122Z,100450.53
2023-01-04T17:42:53.646Z,100460.72
2023-01-04T17:45:22.238Z,100443.81
2023-01-04T17:47:51.159Z,100437.91
2023-01-04T17:50:19.642Z,100441.75
2023-01-04T17:52:49.018Z,100439.09
2023-01-04T17:55:18.050Z,100443.59
2023-01-04T17:57:48.012Z,100433.00
2023-01-04T18:00:17.544Z,100434.41
2023-01-04T18:02:46.245Z,100419.56
2023-01-04T18:05:14.697Z,100429.34
2023-01-04T18:07:43.078Z,100418.97
2023-01-04T18:10:26.791Z,100428.34
2023-01-04T18:13:03.066Z,100422.44
2023-01-04T18:15:31.520Z,100432.03
2023-01-04T18:18:00.317Z,100440.97
2023-01-04T18:20:28.881Z,100422.66
2023-01-04T18:22:57.271Z,100436.88
2023-01-04T18:25:26.323Z,100430.34
2023-01-04T18:27:55.087Z,100426.72
2023-01-04T18:30:24.966Z,100431.78
2023-01-04T18:32:53.392Z,100437.72
2023-01-04T18:35:21.940Z,100419.34
2023-01-04T18:37:50.409Z,100432.44
2023-01-04T18:40:19.097Z,100432.44
2023-01-04T18:42:48.849Z,100426.91
2023-01-04T18:45:17.984Z,100419.19
2023-01-04T18:47:48.186Z,100419.75
2023-01-04T18:50:17.410Z,100404.91
2023-01-04T18:52:46.082Z,100405.94
2023-01-04T18:55:14.654Z,100406.75
2023-01-04T18:57:43.109Z,100404.91
2023-01-04T19:00:13.747Z,100407.34
2023-01-04T19:02:42.669Z,100416.91
2023-01-04T19:05:13.535Z,100430.16
2023-01-04T19:07:42.142Z,100430.34
2023-01-04T19:10:10.864Z,100431.16
2023-01-04T19:12:39.347Z,100426.72
2023-01-04T19:15:10.379Z,100417.13
2023-01-04T19:17:39.391Z,100415.72
2023-01-04T19:20:08.932Z,100415.50
2023-01-04T19:22:41.289Z,100407.38
2023-01-04T19:25:10.138Z,100415.09
2023-01-04T19:27:38.958Z,100425.47
2023-01-04T19:30:09.301Z,100392.72
2023-01-04T19:32:37.732Z,100396.16
2023-01-04T19:35:07.324Z,100390.88
2023-01-04T19:37:35.824Z,100382.53
2023-01-04T19:40:06.957Z,100391.03
2023-01-04T19:42:35.331Z,100384.75
2023-01-04T19:45:04.000Z,100368.22
2023-01-04T19:47:32.535Z,100396.31
2023-01-04T19:50:01.621Z,100385.50
2023-01-04T19:52:34.181Z,100380.22
2023-01-04T19:55:04.388Z,100383.00
2023-01-04T19:57:34.307Z,100383.66
2023-01-04T20:00:03.656Z,100386.25
2023-01-04T20:02:34.002Z,100385.81
2023-01-04T20:05:02.619Z,100409.44
2023-01-04T20:07:31.030Z,100391.50
2023-01-04T20:10:02.349Z,100400.44
2023-01-04T20:12:30.834Z,100403.09
2023-01-04T20:15:00.761Z,100408.56
2023-01-04T20:17:29.237Z,100386.09
2023-01-04T20:19:57.735Z,100385.91
2023-01-04T20:22:26.395Z,100389.34
2023-01-04T20:24:54.876Z,100398.72
2023-01-04T20:27:23.264Z,100398.91
2023-01-04T20:29:51.692Z,100404.56
2023-01-04T20:32:21.435Z,100412.91
2023-01-04T20:34:49.812Z,100402.72
2023-01-04T20:37:18.297Z,100417.38
2023-01-04T20:39:46.832Z,100407.03
2023-01-04T20:42:32.917Z,100418.19
2023-01-04T20:45:01.325Z,100425.94
2023-01-04T20:47:32.021Z,100406.78
2023-01-04T20:50:00.444Z,100401.06
2023-01-04T20:52:28.882Z,100410.19
2023-01-04T20:54:57.287Z,100426.31
2023-01-04T20:57:26.298Z,100393.69
2023-01-04T20:59:54.725Z,100426.09
2023-01-04T21:02:23.296Z,100409.38
2023-01-04T21:04:53.305Z,100410.78
2023-01-04T21:07:21.703Z,100403.63
2023-01-04T21:09:50.024Z,100417.69
2023-01-04T21:12:18.719Z,100413.19
2023-01-04T21:14:47.039Z,100399.94
2023-01-04T21:17:15.338Z,100401.78
2023-01-04T21:19:43.716Z,100414.25
2023-01-04T21:22:13.396Z,100401.78
2023-01-04T21:24:43.710Z,100393.03
2023-01-04T21:27:12.077Z,100392.00
2023-01-04T21:29:40.420Z,100381.16
2023-01-04T21:32:08.742Z,100384.66
2023-01-04T21:34:37.278Z,100385.47
2023-01-04T21:37:05.597Z,100371.97
2023-01-04T21:39:35.503Z,100370.72
2023-01-04T21:42:03.901Z,100361.50
2023-01-04T21:44:32.527Z,100387.00
2023-01-04T21:47:00.927Z,100371.91
2023-01-04T21:49:29.268Z,100384.09
2023-01-04T21:51:57.607Z,100369.81
2023-01-04T21:54:26.186Z,100362.47
2023-01-04T21:56:55.914Z,100363.88
2023-01-04T21:59:24.271Z,100381.38
2023-01-04T22:01:52.649Z,100365.47
2023-01-04T22:04:20.957Z,100360.78
2023-01-04T22:06:49.338Z,100370.09
2023-01-04T22:09:17.670Z,100360.31
2023-01-04T22:11:46.987Z,100352.94
2023-01-04T22:14:16.921Z,100362.50
2023-01-04T22:16:45.387Z,100357.81
2023-01-04T22:19:14.724Z,100350.44
2023-01-04T22:21:43.714Z,100350.22
2023-01-04T22:24:14.420Z,100346.75
2023-01-04T22:26:44.586Z,100337.41
2023-01-04T22:29:13.057Z,100348.38
2023-01-04T22:31:42.816Z,100331.66
2023-01-04T22:34:11.155Z,100332.47
2023-01-04T22:36:39.513Z,100312.88
2023-01-04T22:39:08.022Z,100326.91
2023-01-04T22:41:36.552Z,100324.06
2023-01-04T22:44:06.872Z,100321.97
2023-01-04T22:46:36.870Z,100319.31
2023-01-04T22:49:06.767Z,100322.56
2023-01-04T22:51:35.073Z,100321.78
2023-01-04T22:54:05.715Z,100321.09
2023-01-04T22:56:34.169Z,100328.81
2023-01-04T22:59:02.517Z,100317.41
2023-01-04T23:01:33.259Z,100302.53
2023-01-04T23:04:03.558Z,100315.53
2023-01-04T23:06:33.503Z,100321.69
2023-01-04T23:09:05.997Z,100319.03
2023-01-04T23:11:37.301Z,100312.69
2023-01-04T23:14:09.822Z,100324.34
2023-01-04T23:16:38.182Z,100319.25
2023-01-04T23:19:07.893Z,100320.28
2023-01-04T23:21:37.845Z,100314.53
2023-01-04T23:24:06.960Z,100316.94
2023-01-04T23:26:35.563Z,100324.69
2023-01-04T23:29:04.494Z,100300.00
2023-01-04T23:31:34.522Z,100303.25
2023-01-04T23:34:05.747Z,100306.69
2023-01-04T23:36:38.066Z,100296.69
2023-01-04T23:39:09.318Z,100300.13
2023-01-04T23:41:47.169Z,100305.19
2023-01-04T23:44:18.982Z,100303.16
2023-01-04T23:46:48.315Z,100300.25
2023-01-04T23:49:16.629Z,100296.59
2023-01-04T23:51:46.357Z,100285.50
2023-01-04T23:54:14.670Z,100287.13
2023-01-04T23:56:43.201Z,100284.03
2023-01-04T23:59:11.978Z,100285.84
